Time;durP1;ratioP1;P1;durP2;ratioP2;P2;SDS_P1;SDS_P2;PMS_P1;PMS_P2;Temp;Humidity;BMP_temperature;BMP_pressure;BME280_temperature;BME280_humidity;BME280_pressure;Samples;Min_cycle;Max_cycle;Signal;HPM_P1;HPM_P2
2022/11/03 00:00:28;;;;;;;28.75;14.18;;;23.20;63.00;;;;;;5031581;28;20057;-75
2022/11/03 00:02:54;;;;;;;28.55;13.95;;;23.20;63.00;;;;;;5031566;28;20042;-76
2022/11/03 00:08:06;;;;;;;24.00;14.30;;;23.20;63.10;;;;;;5031615;28;20039;-75
2022/11/03 00:10:31;;;;;;;24.90;13.98;;;23.20;63.00;;;;;;5030956;28;20524;-75
2022/11/03 00:12:57;;;;;;;26.98;12.77;;;23.20;63.00;;;;;;5028113;28;20041;-75
2022/11/03 00:15:23;;;;;;;22.55;13.15;;;23.30;63.00;;;;;;5028681;28;20065;-75
2022/11/03 00:17:49;;;;;;;23.58;13.40;;;23.10;62.80;;;;;;5028655;28;20446;-75
2022/11/03 00:20:15;;;;;;;25.13;13.25;;;23.10;62.80;;;;;;5028501;28;20092;-75
2022/11/03 00:22:41;;;;;;;19.35;13.52;;;23.20;62.70;;;;;;5012119;28;20049;-75
2022/11/03 00:25:07;;;;;;;22.30;13.10;;;23.30;62.80;;;;;;5028453;28;20045;-75
2022/11/03 00:27:33;;;;;;;28.58;13.95;;;23.20;62.60;;;;;;5028494;28;20103;-75
2022/11/03 00:29:59;;;;;;;21.25;13.07;;;23.20;62.60;;;;;;5028367;28;20026;-75
2022/11/03 00:32:25;;;;;;;24.40;14.13;;;23.30;62.70;;;;;;5028352;28;20554;-75
2022/11/03 00:34:51;;;;;;;28.02;13.90;;;23.30;62.60;;;;;;5027719;28;20116;-75
2022/11/03 00:37:17;;;;;;;23.42;13.63;;;23.30;62.50;;;;;;5011951;28;20033;-75
2022/11/03 00:39:43;;;;;;;19.75;12.50;;;23.20;62.50;;;;;;5028171;28;20053;-76
2022/11/03 00:42:09;;;;;;;20.90;11.48;;;23.20;62.60;;;;;;5028332;28;20056;-76
2022/11/03 00:44:35;;;;;;;20.80;11.43;;;23.20;62.40;;;;;;5030066;28;20156;-75
2022/11/03 00:47:01;;;;;;;23.10;11.25;;;23.20;62.40;;;;;;5030346;28;20041;-75
2022/11/03 00:49:27;;;;;;;15.25;10.93;;;23.10;62.60;;;;;;5030788;28;20041;-75
2022/11/03 00:51:53;;;;;;;14.32;9.80;;;23.10;62.60;;;;;;5030771;28;20036;-75
2022/11/03 00:54:19;;;;;;;16.92;9.63;;;23.20;62.50;;;;;;5031642;28;20506;-75
2022/11/03 00:56:45;;;;;;;14.15;9.75;;;23.10;62.60;;;;;;5034920;28;20116;-75
2022/11/03 00:59:48;;;;;;;13.50;8.90;;;23.10;62.60;;;;;;5034925;28;20108;-75
2022/11/03 01:02:14;;;;;;;19.25;10.60;;;23.10;62.50;;;;;;5034823;28;20033;-75
2022/11/03 01:07:25;;;;;;;22.30;11.57;;;23.10;62.50;;;;;;5034377;28;20053;-75
2022/11/03 01:09:51;;;;;;;17.73;10.25;;;23.00;62.60;;;;;;5034431;28;20063;-75
2022/11/03 01:12:18;;;;;;;16.17;10.43;;;23.00;62.60;;;;;;5034480;28;20044;-75
2022/11/03 01:14:49;;;;;;;24.05;10.93;;;23.00;62.50;;;;;;5034853;28;20029;-75
2022/11/03 01:17:25;;;;;;;17.58;11.25;;;23.10;62.60;;;;;;5034563;28;20658;-75
2022/11/03 01:19:52;;;;;;;16.52;10.73;;;23.20;62.50;;;;;;5034596;28;20026;-75
2022/11/03 01:22:19;;;;;;;19.83;10.90;;;23.10;62.50;;;;;;5034394;28;20037;-75
2022/11/03 01:24:45;;;;;;;18.50;10.43;;;23.10;62.50;;;;;;5034784;28;20037;-75
2022/11/03 01:27:18;;;;;;;21.13;10.93;;;23.10;62.40;;;;;;5034072;28;20033;-75
2022/11/03 01:29:44;;;;;;;16.00;10.13;;;23.10;62.40;;;;;;5034322;28;20044;-75
2022/11/03 01:32:11;;;;;;;20.85;11.48;;;23.10;62.50;;;;;;5033298;28;20287;-76
2022/11/03 01:34:38;;;;;;;16.73;10.20;;;23.10;62.40;;;;;;5034036;28;20048;-75
2022/11/03 01:37:04;;;;;;;19.83;11.35;;;23.10;62.50;;;;;;5034244;28;20022;-76
2022/11/03 01:39:30;;;;;;;20.52;11.35;;;23.10;62.40;;;;;;5034132;28;20033;-75
2022/11/03 01:41:55;;;;;;;19.58;11.30;;;23.00;62.30;;;;;;5034055;28;20099;-76
2022/11/03 01:44:28;;;;;;;15.93;10.60;;;23.10;62.50;;;;;;5032783;28;20476;-75
2022/11/03 01:47:02;;;;;;;18.75;10.90;;;23.00;62.50;;;;;;5034133;28;20034;-75
2022/11/03 01:49:45;;;;;;;18.92;11.18;;;23.00;62.50;;;;;;5034057;28;20037;-75
2022/11/03 01:52:32;;;;;;;17.75;10.73;;;23.00;62.40;;;;;;5034209;28;20088;-75
2022/11/03 01:55:14;;;;;;;18.60;10.68;;;22.90;62.50;;;;;;5033996;28;20038;-75
2022/11/03 01:57:47;;;;;;;16.67;10.45;;;22.90;62.60;;;;;;5033821;28;20037;-75
2022/11/03 02:00:13;;;;;;;;;;;22.90;62.50;;;;;;5033037;28;20417;-75
2022/11/03 02:02:40;;;;;;;18.75;9.15;;;23.00;62.50;;;;;;5033554;28;19909;-75
2022/11/03 02:05:08;;;;;;;19.85;9.40;;;22.90;62.50;;;;;;5031605;28;20045;-75
2022/11/03 02:07:55;;;;;;;19.58;10.63;;;23.00;62.50;;;;;;5033357;28;20463;-75
2022/11/03 02:10:23;;;;;;;15.52;10.48;;;22.90;62.50;;;;;;5033606;28;20087;-76
2022/11/03 02:12:49;;;;;;;22.83;11.07;;;22.80;62.50;;;;;;5047609;28;20550;-75
2022/11/03 02:15:17;;;;;;;19.58;10.80;;;22.90;62.60;;;;;;5033439;28;20394;-75
2022/11/03 02:17:46;;;;;;;21.45;11.85;;;22.90;62.60;;;;;;5033517;28;20025;-75
2022/11/03 02:20:16;;;;;;;19.75;11.15;;;22.90;62.50;;;;;;5033633;28;20037;-75
2022/11/03 02:23:03;;;;;;;15.23;9.90;;;22.90;62.50;;;;;;5033273;28;20397;-75
2022/11/03 02:25:32;;;;;;;15.95;10.57;;;23.00;62.40;;;;;;5033363;28;20068;-76
2022/11/03 02:27:59;;;;;;;16.50;10.57;;;22.80;62.30;;;;;;5033344;28;20042;-75
2022/11/03 02:30:31;;;;;;;17.20;10.55;;;22.90;62.50;;;;;;5032747;28;20045;-75
2022/11/03 02:33:21;;;;;;;24.07;11.07;;;22.90;62.50;;;;;;5033189;28;20055;-75
2022/11/03 02:36:06;;;;;;;17.13;10.48;;;22.80;62.40;;;;;;5010842;28;20495;-75
2022/11/03 02:38:35;;;;;;;18.70;10.48;;;22.90;62.50;;;;;;5010606;28;20631;-75
2022/11/03 02:41:05;;;;;;;15.02;10.73;;;23.00;62.40;;;;;;5010756;28;20076;-74
2022/11/03 02:43:31;;;;;;;14.25;10.32;;;22.90;62.30;;;;;;5010358;28;20691;-75
2022/11/03 02:45:58;;;;;;;20.10;10.73;;;22.90;62.30;;;;;;5010745;28;20430;-75
2022/11/03 02:48:24;;;;;;;19.00;11.18;;;23.00;62.40;;;;;;4994158;28;20116;-75
2022/11/03 02:50:50;;;;;;;21.98;10.63;;;22.70;62.30;;;;;;5010718;28;20077;-75
2022/11/03 02:53:16;;;;;;;16.48;10.35;;;22.70;62.20;;;;;;5009381;28;20046;-75
2022/11/03 02:55:56;;;;;;;18.95;10.55;;;22.90;62.40;;;;;;5010416;28;20037;-75
2022/11/03 02:58:41;;;;;;;21.00;10.30;;;22.80;62.20;;;;;;5010511;28;20041;-75
2022/11/03 03:01:24;;;;;;;15.65;9.73;;;22.70;62.20;;;;;;5009751;28;20046;-75
2022/11/03 03:04:00;;;;;;;18.98;9.73;;;22.80;62.20;;;;;;5009725;28;20118;-75
2022/11/03 03:06:41;;;;;;;18.95;11.30;;;22.80;62.10;;;;;;5009552;28;20080;-75
2022/11/03 03:09:15;;;;;;;17.25;10.30;;;22.80;62.10;;;;;;5009864;28;20041;-75
2022/11/03 03:11:42;;;;;;;19.10;10.57;;;22.60;62.10;;;;;;5010097;28;20046;-75
2022/11/03 03:14:36;;;;;;;21.45;11.00;;;22.70;62.30;;;;;;5032377;28;20478;-75
2022/11/03 03:17:11;;;;;;;16.08;10.23;;;22.70;62.40;;;;;;5048825;28;20072;-75
2022/11/03 03:20:01;;;;;;;21.42;11.15;;;22.60;62.30;;;;;;5033025;28;20037;-75
2022/11/03 03:23:19;;;;;;;14.35;9.88;;;22.60;62.30;;;;;;5049478;28;20048;-75
2022/11/03 03:26:03;;;;;;;18.23;10.50;;;22.70;62.30;;;;;;4968741;28;20571;-75
2022/11/03 03:28:32;;;;;;;17.63;9.43;;;22.70;62.30;;;;;;4946740;29;20458;-75
2022/11/03 03:31:01;;;;;;;23.98;11.18;;;22.70;62.20;;;;;;4951714;28;20074;-75
2022/11/03 03:33:30;;;;;;;15.90;10.48;;;22.70;62.10;;;;;;4951192;28;20051;-75
2022/11/03 03:35:58;;;;;;;16.05;10.52;;;22.60;62.00;;;;;;4951181;28;20044;-75
2022/11/03 03:38:32;;;;;;;18.27;10.18;;;22.80;62.00;;;;;;4951513;28;20036;-75
2022/11/03 03:41:01;;;;;;;16.98;9.77;;;22.70;61.90;;;;;;4951056;29;20492;-75
2022/11/03 03:43:29;;;;;;;20.73;10.65;;;22.80;61.90;;;;;;4919330;29;20094;-75
2022/11/03 03:46:00;;;;;;;15.00;9.40;;;22.70;61.80;;;;;;4951014;29;20074;-75
2022/11/03 03:48:26;;;;;;;18.77;10.00;;;22.80;61.80;;;;;;4951194;29;20043;-75
2022/11/03 03:50:53;;;;;;;19.15;11.02;;;22.70;61.80;;;;;;4951218;29;20400;-75
2022/11/03 03:53:19;;;;;;;17.45;10.90;;;22.60;61.70;;;;;;4950857;28;20050;-75
2022/11/03 03:55:50;;;;;;;16.23;9.35;;;22.70;61.90;;;;;;4950814;29;20131;-75
2022/11/03 03:58:17;;;;;;;16.35;9.68;;;22.60;61.70;;;;;;4950574;29;20408;-75
2022/11/03 04:01:01;;;;;;;17.13;10.60;;;22.50;61.80;;;;;;4972916;28;20044;-75
2022/11/03 04:03:28;;;;;;;17.27;10.02;;;22.50;61.90;;;;;;5011787;28;20089;-75
2022/11/03 04:05:54;;;;;;;21.08;9.90;;;22.60;61.80;;;;;;5011473;28;20418;-75
2022/11/03 04:08:20;;;;;;;16.88;9.30;;;22.60;61.80;;;;;;5010180;28;20506;-75
2022/11/03 04:24:30;;;;;;;16.20;10.60;;;22.70;61.70;;;;;;5020982;28;20033;-75
2022/11/03 04:27:04;;;;;;;19.85;9.68;;;22.60;61.60;;;;;;5031210;28;20030;-75
2022/11/03 04:29:30;;;;;;;16.13;9.95;;;22.60;61.50;;;;;;5031009;28;20487;-75
2022/11/03 04:31:56;;;;;;;20.48;10.82;;;22.60;61.50;;;;;;5029826;28;20029;-75
2022/11/03 04:34:23;;;;;;;16.20;10.13;;;22.60;61.40;;;;;;5030810;28;20431;-75
2022/11/03 04:36:49;;;;;;;17.10;9.57;;;22.60;61.40;;;;;;5031282;28;20045;-75
2022/11/03 04:39:18;;;;;;;14.70;10.20;;;22.80;61.40;;;;;;5030857;28;20513;-75
2022/11/03 04:41:45;;;;;;;17.88;10.18;;;22.80;61.30;;;;;;5031240;28;20063;-75
2022/11/03 04:44:15;;;;;;;23.80;10.65;;;22.80;61.20;;;;;;5030993;28;20029;-75
2022/11/03 04:46:44;;;;;;;16.48;10.55;;;22.70;61.00;;;;;;5030756;28;20037;-75
2022/11/03 04:49:17;;;;;;;20.50;10.27;;;22.80;61.20;;;;;;5030605;28;20087;-75
2022/11/03 04:51:43;;;;;;;20.63;9.80;;;22.60;61.30;;;;;;5030602;28;20048;-75
2022/11/03 04:54:21;;;;;;;14.25;9.20;;;22.70;61.70;;;;;;5029593;28;20446;-77
2022/11/03 04:56:47;;;;;;;15.68;9.13;;;22.70;61.60;;;;;;5030754;28;20514;-77
2022/11/03 04:59:15;;;;;;;11.52;9.10;;;22.80;61.20;;;;;;5030867;28;20028;-77
2022/11/03 05:01:43;;;;;;;15.95;9.18;;;22.90;60.70;;;;;;5030898;28;20415;-76
2022/11/03 05:04:15;;;;;;;17.00;10.07;;;23.00;60.20;;;;;;5030612;28;20061;-76
2022/11/03 05:06:51;;;;;;;17.98;9.90;;;23.10;60.00;;;;;;5029686;28;20057;-76
2022/11/03 05:09:28;;;;;;;15.57;9.23;;;23.10;60.00;;;;;;5029955;28;20586;-77
2022/11/03 05:11:54;;;;;;;14.18;8.05;;;23.00;59.80;;;;;;5029814;28;20029;-80
2022/11/03 05:14:23;;;;;;;13.38;8.63;;;23.00;60.10;;;;;;5029716;28;20125;-73
2022/11/03 05:16:52;;;;;;;17.88;8.38;;;23.20;62.80;;;;;;5029914;28;20116;-78
2022/11/03 05:19:24;;;;;;;15.10;8.77;;;23.60;65.00;;;;;;5029658;28;20482;-75
2022/11/03 05:21:54;;;;;;;14.90;9.55;;;23.90;63.50;;;;;;5028937;28;20100;-73
2022/11/03 05:24:24;;;;;;;15.27;9.23;;;24.10;60.40;;;;;;5021359;28;20120;-75
2022/11/03 05:26:51;;;;;;;12.82;8.73;;;23.90;56.60;;;;;;5030179;28;20041;-72
2022/11/03 05:29:34;;;;;;;17.60;9.60;;;23.80;55.70;;;;;;5030189;28;20041;-74
2022/11/03 05:32:00;;;;;;;13.38;8.63;;;23.90;56.70;;;;;;5029821;28;20104;-73
2022/11/03 05:34:29;;;;;;;12.57;8.30;;;23.80;56.30;;;;;;5030393;28;20471;-71
2022/11/03 05:37:07;;;;;;;19.33;11.07;;;23.70;55.80;;;;;;5030523;28;20042;-72
2022/11/03 05:39:39;;;;;;;18.67;9.82;;;23.80;55.30;;;;;;5030551;28;20030;-72
2022/11/03 05:42:26;;;;;;;21.90;11.57;;;23.80;54.70;;;;;;5034264;28;20378;-72
2022/11/03 05:44:53;;;;;;;16.02;9.80;;;23.80;54.30;;;;;;5048246;28;20033;-72
2022/11/03 05:47:28;;;;;;;6.80;4.95;;;23.80;53.70;;;;;;5033594;28;20076;-72
2022/11/03 05:50:00;;;;;;;19.98;14.77;;;23.80;53.50;;;;;;5031732;28;20030;-76
2022/11/03 05:52:27;;;;;;;17.38;10.50;;;23.90;52.00;;;;;;5030920;28;20053;-74
2022/11/03 05:54:57;;;;;;;16.88;9.05;;;23.70;53.10;;;;;;5034103;28;20486;-78
2022/11/03 05:57:28;;;;;;;17.25;9.75;;;23.70;53.70;;;;;;5033842;28;20042;-77
2022/11/03 05:59:54;;;;;;;13.90;9.45;;;23.70;53.50;;;;;;5033748;28;20048;-72
2022/11/03 06:02:36;;;;;;;15.57;8.93;;;23.60;52.10;;;;;;5033994;28;20088;-78
2022/11/03 06:05:14;;;;;;;19.60;9.23;;;23.60;50.30;;;;;;5034368;28;20038;-69
2022/11/03 06:07:40;;;;;;;21.23;10.20;;;23.50;53.00;;;;;;5033632;28;20065;-72
2022/11/03 06:10:26;;;;;;;15.27;9.05;;;23.60;54.40;;;;;;5032415;28;20087;-72
2022/11/03 06:12:56;;;;;;;14.88;9.63;;;23.70;52.80;;;;;;5033567;28;20048;-73
2022/11/03 06:15:35;;;;;;;17.35;9.77;;;23.70;54.40;;;;;;5033321;28;20068;-71
2022/11/03 06:18:13;;;;;;;16.17;9.70;;;23.80;55.30;;;;;;5033478;28;20075;-72
2022/11/03 06:20:40;;;;;;;14.85;10.27;;;24.00;56.40;;;;;;5032724;28;20116;-72
2022/11/03 06:23:11;;;;;;;15.70;8.50;;;23.90;56.40;;;;;;5033706;28;20037;-74
2022/11/03 06:25:37;;;;;;;14.25;9.75;;;23.90;53.70;;;;;;5033535;28;20047;-74
2022/11/03 06:28:08;;;;;;;15.25;9.10;;;24.10;52.00;;;;;;5039567;28;20099;-77
2022/11/03 06:30:39;;;;;;;17.30;9.25;;;24.00;53.00;;;;;;5035579;28;20035;-74
2022/11/03 06:33:20;;;;;;;16.10;10.10;;;24.00;52.00;;;;;;5052019;28;20041;-72
2022/11/03 06:35:49;;;;;;;13.57;9.13;;;24.10;51.90;;;;;;5044583;28;20029;-73
2022/11/03 06:38:21;;;;;;;16.17;8.85;;;24.10;50.50;;;;;;5033012;28;20057;-73
2022/11/03 06:40:50;;;;;;;15.80;9.68;;;24.10;51.10;;;;;;5032762;28;20490;-73
2022/11/03 06:43:30;;;;;;;15.30;10.60;;;24.10;51.70;;;;;;5032336;28;20061;-73
2022/11/03 06:46:04;;;;;;;24.58;10.20;;;24.30;60.00;;;;;;5012678;28;20065;-73
2022/11/03 06:48:33;;;;;;;19.38;11.18;;;24.20;61.10;;;;;;5012839;28;20032;-75
2022/11/03 06:51:00;;;;;;;21.65;11.32;;;24.10;64.10;;;;;;5012164;28;20034;-73
2022/11/03 06:53:32;;;;;;;24.17;11.30;;;24.10;61.10;;;;;;5011982;28;20430;-75
2022/11/03 06:55:58;;;;;;;18.23;10.50;;;23.90;60.50;;;;;;4993026;28;20049;-77
2022/11/03 06:58:33;;;;;;;17.02;11.10;;;23.90;60.70;;;;;;5010311;28;20299;-77
2022/11/03 07:01:02;;;;;;;23.65;10.27;;;23.90;60.70;;;;;;5020674;28;20025;-73
2022/11/03 07:03:34;;;;;;;19.17;10.30;;;23.90;61.00;;;;;;5050394;28;20049;-77
2022/11/03 07:06:09;;;;;;;16.83;10.63;;;23.80;61.40;;;;;;5049293;28;20056;-75
2022/11/03 07:08:38;;;;;;;17.70;10.70;;;23.80;61.50;;;;;;5050564;28;20102;-74
2022/11/03 07:11:27;;;;;;;24.02;10.60;;;23.80;61.10;;;;;;5052955;28;20383;-80
2022/11/03 07:13:58;;;;;;;16.15;8.13;;;23.60;61.80;;;;;;5052581;28;20037;-77
2022/11/03 07:16:28;;;;;;;21.15;9.35;;;23.60;62.20;;;;;;5048430;28;20037;-77
2022/11/03 07:18:59;;;;;;;14.30;8.77;;;23.60;61.80;;;;;;5032202;28;20129;-77
2022/11/03 07:21:31;;;;;;;18.92;8.50;;;23.50;62.40;;;;;;5032619;28;20037;-76
2022/11/03 07:24:00;;;;;;;12.43;5.45;;;23.80;62.60;;;;;;5032527;28;20047;-75
2022/11/03 07:26:27;;;;;;;17.45;6.68;;;23.80;62.60;;;;;;5032165;28;20041;-73
2022/11/03 07:28:53;;;;;;;9.48;5.47;;;23.80;61.70;;;;;;5029563;28;20048;-76
2022/11/03 07:31:22;;;;;;;12.18;6.55;;;23.80;61.20;;;;;;5031807;28;20575;-76
2022/11/03 07:33:49;;;;;;;10.23;7.53;;;23.80;56.60;;;;;;5031682;28;20041;-73
2022/11/03 07:36:19;;;;;;;9.52;5.70;;;23.80;55.20;;;;;;5031532;28;20474;-75
2022/11/03 07:38:50;;;;;;;15.77;6.95;;;23.60;59.30;;;;;;5032109;28;20036;-77
2022/11/03 07:41:19;;;;;;;12.93;6.43;;;23.70;57.20;;;;;;5013977;28;20048;-76
2022/11/03 07:43:57;;;;;;;10.35;5.28;;;23.40;55.00;;;;;;5031521;28;20034;-74
2022/11/03 07:46:24;;;;;;;10.68;6.88;;;23.80;60.20;;;;;;5031293;28;20032;-76
2022/11/03 07:49:00;;;;;;;14.52;7.63;;;23.70;57.00;;;;;;5031353;28;20037;-77
2022/11/03 07:51:31;;;;;;;15.18;7.97;;;23.80;55.10;;;;;;5030975;28;20044;-74
2022/11/03 07:54:22;;;;;;;13.73;7.75;;;23.80;54.90;;;;;;5031326;28;20740;-74
2022/11/03 07:57:09;;;;;;;11.38;5.78;;;23.60;57.60;;;;;;5032037;28;20121;-77
2022/11/03 07:59:41;;;;;;;10.52;5.93;;;23.60;56.80;;;;;;5031590;28;20482;-72
2022/11/03 08:02:22;;;;;;;10.07;5.65;;;23.70;57.50;;;;;;5031726;28;20038;-78
2022/11/03 08:04:49;;;;;;;13.02;7.75;;;23.60;54.50;;;;;;5031014;28;20037;-76
2022/11/03 08:07:14;;;;;;;9.98;4.63;;;23.50;50.80;;;;;;5031439;28;20440;-74
2022/11/03 08:09:40;;;;;;;11.45;6.07;;;23.40;55.00;;;;;;5031453;28;20036;-72
2022/11/03 08:12:06;;;;;;;13.00;6.70;;;23.40;54.90;;;;;;5031509;28;20032;-72
2022/11/03 08:14:33;;;;;;;11.55;7.20;;;23.40;50.90;;;;;;5030463;28;20546;-72
2022/11/03 08:16:58;;;;;;;16.42;5.65;;;23.20;55.20;;;;;;5031076;28;20653;-70
2022/11/03 08:19:24;;;;;;;11.95;4.90;;;23.40;53.70;;;;;;5031305;28;20446;-71
2022/11/03 08:21:50;;;;;;;12.07;5.47;;;23.20;55.80;;;;;;5031353;28;20044;-72
2022/11/03 08:24:16;;;;;;;11.55;7.35;;;23.20;56.20;;;;;;5031320;28;20037;-76
2022/11/03 08:26:42;;;;;;;10.85;7.10;;;23.20;52.70;;;;;;5030898;28;20048;-75
2022/11/03 08:29:09;;;;;;;10.73;6.90;;;23.20;53.60;;;;;;5012537;28;20115;-72
2022/11/03 08:31:34;;;;;;;7.95;3.45;;;23.20;51.40;;;;;;5031086;28;20029;-75
2022/11/03 08:34:00;;;;;;;11.82;4.97;;;23.20;53.70;;;;;;5030963;28;20042;-75
2022/11/03 08:36:26;;;;;;;9.38;6.03;;;23.20;55.10;;;;;;5028190;28;20036;-76
2022/11/03 08:38:52;;;;;;;11.18;4.80;;;23.40;55.60;;;;;;5041999;28;20039;-73
2022/11/03 08:41:18;;;;;;;10.05;6.13;;;23.20;56.40;;;;;;5030910;28;20044;-75
2022/11/03 08:43:44;;;;;;;8.82;6.28;;;23.40;53.10;;;;;;5030930;28;20029;-73
2022/11/03 08:46:10;;;;;;;7.72;4.25;;;23.40;51.60;;;;;;5030821;28;20331;-73
2022/11/03 08:48:36;;;;;;;7.75;4.70;;;23.40;50.90;;;;;;5030027;28;20037;-73
2022/11/03 08:51:02;;;;;;;9.52;6.10;;;23.30;54.90;;;;;;5030701;28;20033;-74
2022/11/03 08:53:29;;;;;;;13.65;5.10;;;23.30;53.90;;;;;;5028832;28;20065;-77
2022/11/03 08:55:55;;;;;;;10.05;5.13;;;23.40;54.40;;;;;;5030585;28;20036;-74
2022/11/03 08:58:21;;;;;;;5.13;3.35;;;23.40;53.60;;;;;;5029708;28;20521;-74
2022/11/03 09:00:48;;;;;;;9.48;5.20;;;23.40;54.80;;;;;;5030643;28;20030;-74
2022/11/03 09:03:14;;;;;;;12.68;5.75;;;23.40;49.40;;;;;;5030544;28;20025;-77
2022/11/03 09:05:40;;;;;;;10.02;4.82;;;23.30;51.50;;;;;;5030741;28;20160;-75
2022/11/03 09:08:06;;;;;;;10.20;4.25;;;23.30;49.60;;;;;;5029040;28;20037;-77
2022/11/03 09:10:33;;;;;;;4.60;3.03;;;23.20;53.60;;;;;;5029169;28;20033;-76
2022/11/03 09:13:00;;;;;;;10.18;6.00;;;23.20;54.20;;;;;;5030299;28;20037;-78
2022/11/03 09:15:26;;;;;;;13.57;5.63;;;23.30;50.90;;;;;;5032009;28;20033;-79
2022/11/03 09:17:52;;;;;;;9.63;4.30;;;23.30;50.70;;;;;;5034712;28;20032;-76
2022/11/03 09:20:18;;;;;;;6.68;3.67;;;23.20;51.70;;;;;;5034980;28;20386;-74
2022/11/03 09:22:44;;;;;;;7.88;3.83;;;23.30;52.90;;;;;;5034614;28;20534;-72
2022/11/03 09:25:10;;;;;;;4.45;3.00;;;23.30;51.30;;;;;;5034930;28;20033;-72
2022/11/03 09:27:36;;;;;;;9.15;3.50;;;23.20;55.20;;;;;;5034342;28;20036;-73
2022/11/03 09:30:03;;;;;;;11.35;4.40;;;23.30;54.70;;;;;;5034576;28;20026;-74
2022/11/03 09:32:30;;;;;;;6.65;4.10;;;23.30;55.10;;;;;;5034663;28;20140;-75
2022/11/03 09:34:56;;;;;;;7.57;3.60;;;23.30;50.10;;;;;;5037521;28;20033;-71
2022/11/03 09:37:22;;;;;;;8.52;3.65;;;23.40;58.70;;;;;;5053746;28;20055;-74
2022/11/03 09:39:48;;;;;;;8.73;3.90;;;23.40;58.70;;;;;;5053113;28;20434;-74
2022/11/03 09:42:15;;;;;;;6.63;2.80;;;23.50;57.70;;;;;;5054311;28;20032;-74
2022/11/03 09:44:41;;;;;;;4.65;1.90;;;23.50;55.10;;;;;;5054372;28;20060;-81
2022/11/03 09:47:18;;;;;;;9.02;3.58;;;23.60;57.30;;;;;;5054085;28;20035;-74
2022/11/03 09:49:44;;;;;;;10.60;3.78;;;23.60;59.80;;;;;;5051448;28;20040;-70
2022/11/03 09:52:16;;;;;;;9.88;4.00;;;23.80;55.50;;;;;;5054040;28;20526;-72
2022/11/03 09:54:42;;;;;;;14.60;4.20;;;23.80;52.80;;;;;;5053823;28;20041;-72
2022/11/03 09:57:12;;;;;;;9.60;4.40;;;23.90;52.60;;;;;;5053967;28;20029;-74
2022/11/03 09:59:40;;;;;;;8.40;4.32;;;23.90;50.50;;;;;;5053782;28;20029;-73
2022/11/03 10:02:26;;;;;;;13.20;5.03;;;23.80;52.20;;;;;;5053667;28;20048;-74
2022/11/03 10:04:53;;;;;;;7.70;4.40;;;23.90;50.20;;;;;;5053311;28;20051;-74
2022/11/03 10:07:20;;;;;;;10.02;3.50;;;23.80;51.10;;;;;;5051286;28;20052;-75
2022/11/03 10:09:50;;;;;;;8.80;3.13;;;23.80;50.50;;;;;;5044241;28;20108;-73
2022/11/03 10:12:16;;;;;;;8.95;3.72;;;23.80;52.90;;;;;;5032705;28;20449;-75
2022/11/03 10:14:45;;;;;;;9.20;3.90;;;23.80;51.90;;;;;;5032741;28;20042;-75
2022/11/03 10:17:25;;;;;;;6.57;2.88;;;23.80;53.40;;;;;;5033066;28;20033;-77
2022/11/03 10:19:54;;;;;;;9.98;3.83;;;23.80;53.20;;;;;;5033641;28;20041;-72
2022/11/03 10:22:21;;;;;;;5.90;3.20;;;23.80;50.00;;;;;;5033763;28;20033;-76
2022/11/03 10:24:48;;;;;;;9.85;3.88;;;23.80;52.00;;;;;;5033566;28;20486;-74
2022/11/03 10:27:24;;;;;;;6.55;3.13;;;23.80;54.40;;;;;;5032527;28;20029;-74
2022/11/03 10:30:11;;;;;;;6.55;3.65;;;23.80;52.20;;;;;;5033017;28;20057;-75
2022/11/03 10:32:37;;;;;;;3.38;2.83;;;23.80;50.60;;;;;;5032193;28;20033;-73
2022/11/03 10:35:33;;;;;;;8.43;3.15;;;23.80;50.20;;;;;;5032910;28;20029;-74
2022/11/03 10:38:26;;;;;;;11.07;4.47;;;23.70;54.20;;;;;;5032889;28;20045;-75
2022/11/03 10:40:53;;;;;;;25.03;7.00;;;23.70;57.80;;;;;;5033518;28;20033;-74
2022/11/03 10:43:19;;;;;;;10.02;3.80;;;24.50;66.40;;;;;;5033100;28;20059;-75
2022/11/03 10:45:45;;;;;;;6.93;3.33;;;25.30;66.50;;;;;;5032930;28;20036;-75
2022/11/03 10:48:11;;;;;;;14.85;4.40;;;25.30;62.40;;;;;;5032976;28;20037;-75
2022/11/03 10:50:39;;;;;;;6.88;1.90;;;25.30;64.60;;;;;;5033258;28;20033;-74
2022/11/03 10:53:16;;;;;;;4.45;2.00;;;25.30;58.70;;;;;;5032832;28;20057;-75
2022/11/03 10:55:43;;;;;;;5.95;2.90;;;25.20;60.60;;;;;;5032096;28;20081;-76
2022/11/03 10:58:09;;;;;;;4.95;2.13;;;25.30;57.50;;;;;;5031942;28;20033;-76
2022/11/03 11:00:35;;;;;;;8.13;2.83;;;25.20;55.80;;;;;;5032763;28;20036;-77
2022/11/03 11:03:01;;;;;;;1.88;1.67;;;25.10;53.10;;;;;;5033359;28;20114;-76
2022/11/03 11:05:27;;;;;;;4.03;2.40;;;25.00;57.40;;;;;;5032560;28;20057;-76
2022/11/03 11:07:54;;;;;;;3.85;2.25;;;25.10;52.40;;;;;;5030988;28;20124;-76
2022/11/03 11:10:28;;;;;;;2.50;1.48;;;25.10;51.70;;;;;;5032862;28;20095;-76
2022/11/03 11:13:22;;;;;;;5.00;1.67;;;25.10;52.80;;;;;;5032643;28;20037;-75
2022/11/03 11:16:00;;;;;;;3.65;2.25;;;25.00;52.20;;;;;;5032884;28;20467;-75
2022/11/03 11:18:29;;;;;;;0.82;0.82;;;25.00;52.30;;;;;;5032434;28;20045;-76
2022/11/03 11:20:56;;;;;;;3.33;2.03;;;25.00;53.20;;;;;;5032290;28;20520;-75
2022/11/03 11:23:28;;;;;;;6.05;3.10;;;25.00;53.30;;;;;;5032055;28;20099;-76
2022/11/03 11:26:28;;;;;;;4.73;1.70;;;24.90;51.70;;;;;;5032511;28;20029;-76
2022/11/03 11:29:10;;;;;;;5.05;2.22;;;24.90;52.00;;;;;;5032201;28;20743;-75
2022/11/03 11:31:40;;;;;;;9.45;2.45;;;24.90;46.90;;;;;;5032311;28;20033;-76
2022/11/03 11:34:09;;;;;;;6.88;2.35;;;24.80;47.50;;;;;;5032391;28;20041;-75
2022/11/03 11:36:36;;;;;;;7.25;2.10;;;24.80;45.50;;;;;;5049538;28;20394;-75
2022/11/03 11:39:08;;;;;;;3.40;2.20;;;24.80;47.10;;;;;;5051245;28;20040;-74
2022/11/03 11:42:08;;;;;;;4.00;2.03;;;24.60;45.80;;;;;;5051921;28;20112;-74
2022/11/03 11:44:46;;;;;;;7.28;1.85;;;24.60;51.40;;;;;;5051956;28;20473;-74
2022/11/03 11:47:31;;;;;;;8.13;2.53;;;24.60;55.10;;;;;;5051655;28;20035;-74
2022/11/03 11:50:09;;;;;;;2.95;2.40;;;24.60;52.80;;;;;;5050774;28;20112;-74
2022/11/03 11:52:35;;;;;;;4.93;2.20;;;24.80;54.80;;;;;;5051445;28;20043;-75
2022/11/03 11:55:02;;;;;;;5.07;1.90;;;24.70;55.60;;;;;;5051414;28;20412;-73
2022/11/03 11:57:32;;;;;;;3.05;1.95;;;24.60;54.80;;;;;;5051473;28;20033;-73
2022/11/03 11:59:58;;;;;;;6.18;2.20;;;24.60;52.00;;;;;;5051647;28;20119;-74
2022/11/03 12:02:29;;;;;;;4.32;2.30;;;24.50;52.10;;;;;;5051802;28;20090;-77
2022/11/03 12:05:03;;;;;;;5.88;2.95;;;24.50;55.70;;;;;;5044051;28;20852;-75
2022/11/03 12:07:33;;;;;;;3.47;2.30;;;24.50;55.80;;;;;;5029990;28;20368;-75
2022/11/03 12:10:21;;;;;;;4.43;2.15;;;24.50;53.60;;;;;;5031675;28;20037;-74
2022/11/03 12:12:48;;;;;;;2.40;1.40;;;24.50;55.00;;;;;;5031446;28;20041;-73
2022/11/03 12:15:52;;;;;;;3.17;2.15;;;24.50;53.70;;;;;;5031542;28;20181;-73
2022/11/03 12:18:37;;;;;;;;;;;24.50;55.50;;;;;;5032154;28;20048;-76
2022/11/03 12:21:30;;;;;;;3.40;1.95;;;24.40;52.20;;;;;;5031269;28;20333;-75
2022/11/03 12:23:56;;;;;;;4.05;1.70;;;24.50;56.50;;;;;;5031228;28;20079;-75
2022/11/03 12:26:28;;;;;;;3.00;2.03;;;24.30;54.80;;;;;;5013206;28;20037;-71
2022/11/03 12:28:54;;;;;;;4.00;2.00;;;24.30;54.50;;;;;;5029715;28;20029;-75
2022/11/03 12:31:20;;;;;;;2.08;1.42;;;24.30;57.70;;;;;;5030166;28;20025;-73
2022/11/03 12:33:46;;;;;;;3.85;1.92;;;24.30;56.90;;;;;;5013488;28;20110;-73
2022/11/03 12:36:12;;;;;;;8.95;2.90;;;24.30;55.80;;;;;;5045110;28;20436;-78
2022/11/03 12:38:38;;;;;;;3.90;2.10;;;24.50;57.30;;;;;;5050936;28;20040;-76
2022/11/03 12:43:50;;;;;;;4.05;1.83;;;24.40;55.40;;;;;;5051072;28;20080;-75
2022/11/03 12:46:18;;;;;;;4.30;1.80;;;24.40;54.00;;;;;;5031497;28;20033;-76
2022/11/03 12:48:46;;;;;;;4.15;2.10;;;24.30;55.10;;;;;;5030985;28;20021;-76
2022/11/03 12:51:13;;;;;;;4.05;1.80;;;24.50;56.80;;;;;;5030366;28;20057;-75
2022/11/03 12:53:39;;;;;;;7.43;2.53;;;24.40;54.60;;;;;;5031061;28;20366;-76
2022/11/03 12:56:07;;;;;;;4.07;1.95;;;24.40;55.60;;;;;;5031110;28;20026;-75
2022/11/03 12:58:33;;;;;;;4.20;2.42;;;24.40;52.70;;;;;;5030966;28;20037;-75
2022/11/03 13:00:59;;;;;;;3.70;2.28;;;24.50;56.00;;;;;;5030853;28;20410;-76
2022/11/03 13:03:25;;;;;;;3.17;1.38;;;24.50;56.20;;;;;;5029970;28;20041;-75
2022/11/03 13:05:51;;;;;;;4.57;1.85;;;24.50;54.50;;;;;;5029635;28;20049;-73
2022/11/03 13:08:17;;;;;;;4.05;2.10;;;24.50;56.40;;;;;;5030708;28;20056;-74
2022/11/03 13:10:43;;;;;;;5.00;2.50;;;24.50;57.70;;;;;;5030895;28;20040;-75
2022/11/03 13:13:10;;;;;;;2.65;1.17;;;24.60;56.50;;;;;;5030785;28;20357;-75
2022/11/03 13:15:36;;;;;;;2.03;1.65;;;24.60;56.80;;;;;;5030991;28;20053;-75
2022/11/03 13:18:04;;;;;;;1.92;1.77;;;24.80;59.50;;;;;;5030630;28;20466;-75